createdAt,value
2019-02-24T00:04:53.782Z,49
2019-02-24T00:09:57.906Z,49
2019-02-24T00:15:03.060Z,48.9
2019-02-24T00:20:08.334Z,48.8
2019-02-24T00:25:14.281Z,48.8
2019-02-24T00:30:19.469Z,48.7
2019-02-24T00:35:24.881Z,48.6
2019-02-24T00:40:30.554Z,48.6
2019-02-24T00:45:35.702Z,48.6
2019-02-24T00:50:41.252Z,48.5
2019-02-24T00:55:46.449Z,48.5
2019-02-24T01:00:51.487Z,48.5
2019-02-24T01:05:57.076Z,48.5
2019-02-24T01:11:02.885Z,48.6
2019-02-24T01:16:08.999Z,48.5
2019-02-24T01:21:14.821Z,48.4
2019-02-24T01:26:20.037Z,48.4
2019-02-24T01:31:26.079Z,48.3
2019-02-24T01:36:31.825Z,48.3
2019-02-24T01:41:37.830Z,48.3
2019-02-24T01:46:43.663Z,48.3
2019-02-24T01:51:49.180Z,48.3
2019-02-24T01:56:54.419Z,48.2
2019-02-24T02:01:59.700Z,48.2
2019-02-24T02:07:05.848Z,48.3
2019-02-24T02:12:09.875Z,48.3
2019-02-24T02:17:15.960Z,48.3
2019-02-24T02:22:21.421Z,48.2
2019-02-24T02:27:26.639Z,48.3
2019-02-24T02:32:32.043Z,48.2
2019-02-24T02:37:36.339Z,48.2
2019-02-24T02:42:41.240Z,48.2
2019-02-24T02:47:46.665Z,48.1
2019-02-24T02:52:51.813Z,48.1
2019-02-24T02:57:57.232Z,48.1
2019-02-24T03:03:02.726Z,48.1
2019-02-24T03:08:08.014Z,48.1
2019-02-24T03:13:13.289Z,48.1
2019-02-24T03:18:19.073Z,48
2019-02-24T03:23:25.047Z,48
2019-02-24T03:28:30.894Z,48
2019-02-24T03:33:36.573Z,48
2019-02-24T03:38:41.916Z,48
2019-02-24T03:43:47.285Z,48
2019-02-24T03:48:52.490Z,48.1
2019-02-24T03:53:58.185Z,48
2019-02-24T03:59:03.493Z,48.1
2019-02-24T04:04:08.876Z,48.1
2019-02-24T04:09:14.706Z,48
2019-02-24T04:14:20.531Z,48
2019-02-24T04:19:26.216Z,48
2019-02-24T04:24:32.329Z,48
2019-02-24T04:29:38.137Z,48
2019-02-24T04:34:43.648Z,48
2019-02-24T04:39:49.130Z,48
2019-02-24T04:44:54.288Z,48
2019-02-24T04:49:59.728Z,48
2019-02-24T04:55:05.243Z,48
2019-02-24T05:00:11.113Z,47.9
2019-02-24T05:05:16.245Z,47.9
2019-02-24T05:10:21.666Z,47.9
2019-02-24T05:15:27.021Z,47.9
2019-02-24T05:20:32.809Z,47.9
2019-02-24T05:25:37.997Z,47.8
2019-02-24T05:30:43.412Z,47.3
2019-02-24T05:35:49.428Z,46.2
2019-02-24T05:40:55.352Z,46.2
2019-02-24T05:45:59.688Z,46.2
2019-02-24T05:51:05.140Z,46.4
2019-02-24T05:56:10.374Z,46.5
2019-02-24T06:01:15.474Z,46.7
2019-02-24T06:06:21.076Z,47
2019-02-24T06:11:27.557Z,46.9
2019-02-24T06:16:33.012Z,46
2019-02-24T06:21:38.972Z,46.1
2019-02-24T06:26:44.105Z,41.1
2019-02-24T06:31:49.561Z,37
2019-02-24T06:36:54.800Z,30.8
2019-02-24T06:42:01.231Z,34.9
2019-02-24T06:47:06.505Z,36.7
2019-02-24T06:52:12.117Z,37.1
2019-02-24T06:57:18.120Z,38
2019-02-24T07:02:24.214Z,39.5
2019-02-24T07:07:29.367Z,40.4
2019-02-24T07:12:34.519Z,41.4
2019-02-24T07:17:40.312Z,42.5
2019-02-24T07:22:46.451Z,43
2019-02-24T07:27:52.062Z,43.6
2019-02-24T07:32:57.468Z,44.1
2019-02-24T07:38:03.125Z,44.4
2019-02-24T07:43:08.932Z,44.5
2019-02-24T07:48:14.728Z,44.9
2019-02-24T07:51:54.744Z,43.5
2019-02-24T07:56:59.795Z,45.4
2019-02-24T08:02:03.929Z,46.3
2019-02-24T08:07:09.104Z,46.3
2019-02-24T08:12:14.506Z,45.4
2019-02-24T08:17:19.817Z,44.7
2019-02-24T08:22:25.988Z,44.9
2019-02-24T08:27:31.497Z,45.3
2019-02-24T08:32:36.537Z,46.2
2019-02-24T08:37:41.817Z,46.8
2019-02-24T08:42:46.934Z,46.8
2019-02-24T08:47:52.448Z,46.7
2019-02-24T08:52:57.634Z,46.7
2019-02-24T08:58:03.382Z,46.6
2019-02-24T09:03:09.189Z,47
2019-02-24T09:08:14.653Z,47
2019-02-24T09:13:20.450Z,22.8
2019-02-24T09:18:26.972Z,22.7
2019-02-24T09:23:32.300Z,26.6
2019-02-24T09:28:37.539Z,27.7
2019-02-24T09:33:43.939Z,29.7
2019-02-24T09:38:49.717Z,32.4
2019-02-24T09:43:54.915Z,32.5
2019-02-24T09:49:00.512Z,33.7
2019-02-24T09:54:05.891Z,35.5
2019-02-24T09:59:11.157Z,35.8
2019-02-24T10:04:15.072Z,36.7
2019-02-24T10:09:20.586Z,37.3
2019-02-24T10:14:25.886Z,38.1
2019-02-24T10:19:33.292Z,39.1
2019-02-24T10:24:39.758Z,39.2
2019-02-24T10:29:45.435Z,39.7
2019-02-24T10:34:51.657Z,39.9
2019-02-24T10:39:56.967Z,40.1
2019-02-24T10:45:02.003Z,41.1
2019-02-24T10:50:12.864Z,40.4
2019-02-24T10:55:08.314Z,40.4
2019-02-24T11:00:13.432Z,41
2019-02-24T11:05:56.941Z,40.8
2019-02-24T11:16:12.838Z,41.3
2019-02-24T11:21:19.013Z,40.6
2019-02-24T11:26:23.955Z,40.5
2019-02-24T11:31:24.059Z,36.6
2019-02-24T11:36:29.025Z,39.6
2019-02-24T11:41:35.635Z,42.8
2019-02-24T11:46:40.791Z,44.8
2019-02-24T11:51:46.047Z,45.9
2019-02-24T11:56:51.047Z,47
2019-02-24T12:01:56.168Z,47.5
2019-02-24T12:07:01.944Z,48.3
2019-02-24T12:12:07.228Z,48.6
2019-02-24T12:17:12.263Z,48.9
2019-02-24T12:22:17.614Z,49.2
2019-02-24T12:27:23.119Z,49.5
2019-02-24T12:32:29.870Z,49.8
2019-02-24T12:37:35.249Z,50
2019-02-24T12:42:35.838Z,49.3
2019-02-24T12:47:40.643Z,48.5
2019-02-24T12:52:45.841Z,48.2
2019-02-24T12:57:55.481Z,48
2019-02-24T13:03:01.139Z,47.7
2019-02-24T13:08:06.749Z,47.3
2019-02-24T13:13:12.165Z,48
2019-02-24T13:18:17.482Z,47
2019-02-24T13:23:22.882Z,46.9
2019-02-24T13:28:28.404Z,46.7
2019-02-24T13:38:37.187Z,46.2
2019-02-24T13:43:42.642Z,45.9
2019-02-24T13:48:48.495Z,46
2019-02-24T13:53:54.594Z,45.8
2019-02-24T13:59:00.725Z,45.7
2019-02-24T14:04:06.117Z,45.6
2019-02-24T14:09:11.368Z,45.9
2019-02-24T14:14:16.738Z,46.1
2019-02-24T14:19:22.017Z,46.2
2019-02-24T14:24:27.255Z,46.2
2019-02-24T14:29:33.117Z,46.2
2019-02-24T14:34:38.450Z,46.1
2019-02-24T14:39:43.609Z,46.2
2019-02-24T14:44:49.022Z,46.4
2019-02-24T14:49:55.010Z,46.7
2019-02-24T14:55:00.302Z,46.9
2019-02-24T15:00:09.250Z,47.3
2019-02-24T15:05:21.705Z,47
2019-02-24T15:10:19.046Z,46.9
2019-02-24T15:15:34.070Z,46.9
2019-02-24T15:20:29.585Z,46.9
2019-02-24T15:25:35.560Z,46.8
2019-02-24T15:30:41.534Z,47
2019-02-24T15:35:47.538Z,47.2
2019-02-24T15:40:53.486Z,47.1
2019-02-24T15:45:58.976Z,47.4
2019-02-24T15:51:04.143Z,47.6
2019-02-24T15:56:09.524Z,47.8
2019-02-24T16:01:14.654Z,47.8
2019-02-24T16:06:20.931Z,48.2
2019-02-24T16:11:26.564Z,48.2
2019-02-24T16:16:32.251Z,48.2
2019-02-24T16:21:40.199Z,47.8
2019-02-24T16:26:45.461Z,47.9
2019-02-24T16:31:50.849Z,47.8
2019-02-24T16:36:55.955Z,48.4
2019-02-24T16:42:01.436Z,48.9
2019-02-24T16:47:07.194Z,48.9
2019-02-24T16:52:12.509Z,48.9
2019-02-24T16:57:17.759Z,49.1
2019-02-24T17:02:25.632Z,49.2
2019-02-24T17:07:31.452Z,49.1
2019-02-24T17:17:41.036Z,49.5
2019-02-24T17:22:47.218Z,49.5
2019-02-24T17:27:53.446Z,49.5
2019-02-24T17:32:59.276Z,49.6
2019-02-24T17:38:05.399Z,49.6
2019-02-24T17:43:11.523Z,49.6
2019-02-24T17:48:17.064Z,49.7
2019-02-24T17:53:22.220Z,50
2019-02-24T17:58:27.240Z,50.1
2019-02-24T18:03:41.880Z,49.9
2019-02-24T18:08:38.328Z,49.9
2019-02-24T18:13:45.292Z,49.9
2019-02-24T18:18:50.680Z,49.9
2019-02-24T18:23:57.015Z,49.8
2019-02-24T18:29:02.300Z,49.6
2019-02-24T18:34:08.381Z,49.4
2019-02-24T18:39:13.483Z,49.5
2019-02-24T18:44:19.709Z,49.9
2019-02-24T18:49:26.613Z,49.9
2019-02-24T18:59:41.703Z,37.5
2019-02-24T19:04:46.975Z,39.8
2019-02-24T19:09:52.245Z,40.3
2019-02-24T19:14:56.354Z,40.3
2019-02-24T19:19:56.517Z,40.6
2019-02-24T19:25:02.020Z,45
2019-02-24T19:30:07.982Z,44.9
2019-02-24T19:35:14.151Z,48.2
2019-02-24T19:40:19.346Z,48.2
2019-02-24T19:45:24.514Z,49
2019-02-24T19:50:30.428Z,50.7
2019-02-24T20:00:34.006Z,51.2
2019-02-24T20:05:40.072Z,51.6
2019-02-24T20:10:43.965Z,52.3
2019-02-24T20:15:49.326Z,52.7
2019-02-24T20:20:54.845Z,53.3
2019-02-24T20:26:00.019Z,53.4
2019-02-24T20:31:05.710Z,52.9
2019-02-24T20:36:10.926Z,52.8
2019-02-24T20:41:17.645Z,52.5
2019-02-24T20:46:22.850Z,52.4
2019-02-24T20:51:28.563Z,52.4
2019-02-24T20:56:33.683Z,52.3
2019-02-24T21:01:43.273Z,52.2
2019-02-24T21:06:47.451Z,52.2
2019-02-24T21:11:52.725Z,52
2019-02-24T21:16:57.825Z,52
2019-02-24T21:22:03.308Z,51.9
2019-02-24T21:27:08.443Z,51.9
2019-02-24T21:32:15.248Z,51.8
2019-02-24T21:37:20.473Z,51.8
2019-02-24T21:42:25.562Z,51.8
2019-02-24T21:47:30.642Z,51.8
2019-02-24T21:52:35.910Z,51.8
2019-02-24T21:57:40.995Z,51.8
2019-02-24T22:02:46.216Z,51.8
2019-02-24T22:07:51.418Z,51.8
2019-02-24T22:12:56.737Z,51.6
2019-02-24T22:18:01.876Z,52
2019-02-24T22:23:07.289Z,52.7
2019-02-24T22:28:12.549Z,53
2019-02-24T22:33:17.761Z,53.3
2019-02-24T22:38:22.817Z,53.6
2019-02-24T22:43:28.022Z,53.7
2019-02-24T22:53:36.882Z,54.3
2019-02-24T22:58:41.981Z,53.6
2019-02-24T23:03:47.294Z,53.8
2019-02-24T23:08:52.320Z,53.6
2019-02-24T23:13:57.703Z,53.7
2019-02-24T23:19:02.912Z,53.8
2019-02-24T23:24:08.649Z,53.6
2019-02-24T23:29:12.605Z,53.6
2019-02-24T23:34:16.765Z,53.5
2019-02-24T23:39:22.312Z,53.3
2019-02-24T23:44:27.972Z,53.4
2019-02-24T23:49:33.192Z,53.4
2019-02-24T23:54:38.363Z,53.3
2019-02-24T23:59:43.468Z,53.3
